sensor_id;sensor_type;location;lat;lon;timestamp;pressure;altitude;pressure_sealevel;temperature;humidity
72961;BME280;61141;46.204;19.774;2022-10-16T00:02:22;101002.63;;;13.02;69.77
72961;BME280;61141;46.204;19.774;2022-10-16T00:05:25;101000.31;;;13.04;69.59
72961;BME280;61141;46.204;19.774;2022-10-16T00:08:28;101001.09;;;13.05;69.56
72961;BME280;61141;46.204;19.774;2022-10-16T00:11:36;100986.03;;;12.95;69.76
72961;BME280;61141;46.204;19.774;2022-10-16T00:14:39;100997.13;;;13.02;69.72
72961;BME280;61141;46.204;19.774;2022-10-16T00:17:44;100994.31;;;12.98;69.91
72961;BME280;61141;46.204;19.774;2022-10-16T00:20:47;100991.97;;;12.97;70.07
72961;BME280;61141;46.204;19.774;2022-10-16T00:24:02;100995.91;;;13.00;70.27
72961;BME280;61141;46.204;19.774;2022-10-16T00:27:05;100997.88;;;12.99;70.00
72961;BME280;61141;46.204;19.774;2022-10-16T00:30:08;101000.63;;;12.99;70.02
72961;BME280;61141;46.204;19.774;2022-10-16T00:33:11;100996.72;;;13.00;69.67
72961;BME280;61141;46.204;19.774;2022-10-16T00:36:17;100995.50;;;12.98;69.99
72961;BME280;61141;46.204;19.774;2022-10-16T00:39:20;100999.34;;;12.93;70.12
72961;BME280;61141;46.204;19.774;2022-10-16T00:42:23;101004.00;;;12.89;70.25
72961;BME280;61141;46.204;19.774;2022-10-16T00:45:26;100992.47;;;12.80;70.31
72961;BME280;61141;46.204;19.774;2022-10-16T00:48:30;100991.56;;;12.72;70.52
72961;BME280;61141;46.204;19.774;2022-10-16T00:51:35;100990.44;;;12.77;70.24
72961;BME280;61141;46.204;19.774;2022-10-16T00:54:38;100981.78;;;12.75;70.37
72961;BME280;61141;46.204;19.774;2022-10-16T00:57:42;100985.75;;;12.77;70.61
72961;BME280;61141;46.204;19.774;2022-10-16T01:00:46;100983.34;;;12.76;70.35
72961;BME280;61141;46.204;19.774;2022-10-16T01:03:48;100990.03;;;12.75;70.39
72961;BME280;61141;46.204;19.774;2022-10-16T01:10:57;100995.38;;;12.68;70.88
72961;BME280;61141;46.204;19.774;2022-10-16T01:13:40;101004.38;;;12.65;71.18
72961;BME280;61141;46.204;19.774;2022-10-16T01:17:06;100990.84;;;12.53;71.33
72961;BME280;61141;46.204;19.774;2022-10-16T01:20:30;101003.03;;;12.55;71.37
72961;BME280;61141;46.204;19.774;2022-10-16T01:30:21;101013.28;;;12.35;72.24
72961;BME280;61141;46.204;19.774;2022-10-16T01:33:38;101015.59;;;12.33;72.63
72961;BME280;61141;46.204;19.774;2022-10-16T01:36:56;101024.16;;;12.28;72.51
72961;BME280;61141;46.204;19.774;2022-10-16T01:40:04;101022.69;;;12.15;73.07
72961;BME280;61141;46.204;19.774;2022-10-16T01:43:12;101037.59;;;12.14;73.53
72961;BME280;61141;46.204;19.774;2022-10-16T01:46:18;101034.72;;;12.07;73.91
72961;BME280;61141;46.204;19.774;2022-10-16T01:49:24;101035.44;;;12.04;74.18
72961;BME280;61141;46.204;19.774;2022-10-16T01:52:29;101015.50;;;11.88;74.64
72961;BME280;61141;46.204;19.774;2022-10-16T01:55:35;101017.09;;;11.89;75.66
72961;BME280;61141;46.204;19.774;2022-10-16T01:58:47;101024.75;;;11.80;75.42
72961;BME280;61141;46.204;19.774;2022-10-16T02:02:01;101013.88;;;11.68;75.72
72961;BME280;61141;46.204;19.774;2022-10-16T02:05:18;101020.34;;;11.60;76.42
72961;BME280;61141;46.204;19.774;2022-10-16T02:08:24;101020.63;;;11.55;76.63
72961;BME280;61141;46.204;19.774;2022-10-16T02:11:28;101010.94;;;11.42;76.94
72961;BME280;61141;46.204;19.774;2022-10-16T02:14:31;101035.28;;;11.43;77.48
72961;BME280;61141;46.204;19.774;2022-10-16T02:17:35;101020.47;;;11.29;77.76
72961;BME280;61141;46.204;19.774;2022-10-16T02:20:57;101018.53;;;11.13;77.81
72961;BME280;61141;46.204;19.774;2022-10-16T02:27:22;101038.00;;;11.08;79.44
72961;BME280;61141;46.204;19.774;2022-10-16T02:33:34;101042.84;;;10.99;80.03
72961;BME280;61141;46.204;19.774;2022-10-16T02:36:40;101045.88;;;10.94;80.03
72961;BME280;61141;46.204;19.774;2022-10-16T02:39:44;101052.06;;;10.91;80.42
72961;BME280;61141;46.204;19.774;2022-10-16T02:42:50;101053.66;;;10.92;80.54
72961;BME280;61141;46.204;19.774;2022-10-16T02:45:54;101051.00;;;10.80;80.94
72961;BME280;61141;46.204;19.774;2022-10-16T02:48:57;101038.91;;;10.81;81.05
72961;BME280;61141;46.204;19.774;2022-10-16T02:51:59;101057.66;;;10.79;81.46
72961;BME280;61141;46.204;19.774;2022-10-16T02:55:02;101060.03;;;10.81;80.87
72961;BME280;61141;46.204;19.774;2022-10-16T02:58:06;101061.25;;;10.83;81.66
72961;BME280;61141;46.204;19.774;2022-10-16T03:01:09;101061.25;;;10.83;81.50
72961;BME280;61141;46.204;19.774;2022-10-16T03:04:11;101072.16;;;10.80;81.70
72961;BME280;61141;46.204;19.774;2022-10-16T03:07:14;101059.91;;;10.77;81.78
72961;BME280;61141;46.204;19.774;2022-10-16T03:10:17;101074.53;;;10.81;82.26
72961;BME280;61141;46.204;19.774;2022-10-16T03:13:20;101050.28;;;10.68;82.06
72961;BME280;61141;46.204;19.774;2022-10-16T03:16:23;101087.44;;;10.81;81.81
72961;BME280;61141;46.204;19.774;2022-10-16T03:19:26;101087.78;;;10.79;81.75
72961;BME280;61141;46.204;19.774;2022-10-16T03:22:28;101078.50;;;10.68;81.73
72961;BME280;61141;46.204;19.774;2022-10-16T03:25:31;101085.47;;;10.66;81.89
72961;BME280;61141;46.204;19.774;2022-10-16T03:28:34;101086.62;;;10.65;82.61
72961;BME280;61141;46.204;19.774;2022-10-16T03:31:37;101084.41;;;10.54;83.03
72961;BME280;61141;46.204;19.774;2022-10-16T03:34:39;101082.69;;;10.50;83.21
72961;BME280;61141;46.204;19.774;2022-10-16T03:37:42;101090.47;;;10.48;83.08
72961;BME280;61141;46.204;19.774;2022-10-16T03:40:45;101091.84;;;10.42;83.05
72961;BME280;61141;46.204;19.774;2022-10-16T03:43:47;101085.91;;;10.24;83.33
72961;BME280;61141;46.204;19.774;2022-10-16T03:46:50;101090.84;;;10.19;83.65
72961;BME280;61141;46.204;19.774;2022-10-16T03:49:53;101097.22;;;10.11;84.13
72961;BME280;61141;46.204;19.774;2022-10-16T03:52:56;101091.28;;;10.09;84.38
72961;BME280;61141;46.204;19.774;2022-10-16T03:55:58;101081.53;;;9.95;84.58
72961;BME280;61141;46.204;19.774;2022-10-16T03:59:01;101102.03;;;10.01;84.95
72961;BME280;61141;46.204;19.774;2022-10-16T04:02:04;101092.97;;;9.85;85.46
72961;BME280;61141;46.204;19.774;2022-10-16T04:05:07;101110.72;;;9.91;85.32
72961;BME280;61141;46.204;19.774;2022-10-16T04:08:10;101104.59;;;9.82;85.44
72961;BME280;61141;46.204;19.774;2022-10-16T04:11:13;101085.00;;;9.68;85.50
72961;BME280;61141;46.204;19.774;2022-10-16T04:14:16;101097.31;;;9.62;85.84
72961;BME280;61141;46.204;19.774;2022-10-16T04:17:18;101094.03;;;9.57;86.32
72961;BME280;61141;46.204;19.774;2022-10-16T04:20:22;101092.78;;;9.42;87.02
72961;BME280;61141;46.204;19.774;2022-10-16T04:23:24;101103.62;;;9.38;87.45
72961;BME280;61141;46.204;19.774;2022-10-16T04:26:27;101106.69;;;9.37;87.78
72961;BME280;61141;46.204;19.774;2022-10-16T04:29:30;101105.09;;;9.36;87.80
72961;BME280;61141;46.204;19.774;2022-10-16T04:32:33;101112.84;;;9.34;88.11
72961;BME280;61141;46.204;19.774;2022-10-16T04:35:36;101114.31;;;9.31;88.15
72961;BME280;61141;46.204;19.774;2022-10-16T04:38:39;101099.41;;;9.17;88.38
72961;BME280;61141;46.204;19.774;2022-10-16T04:41:42;101101.34;;;9.16;88.75
72961;BME280;61141;46.204;19.774;2022-10-16T04:44:44;101110.56;;;9.24;88.67
72961;BME280;61141;46.204;19.774;2022-10-16T04:47:52;101104.75;;;9.25;88.86
72961;BME280;61141;46.204;19.774;2022-10-16T04:50:54;101106.69;;;9.25;88.95
72961;BME280;61141;46.204;19.774;2022-10-16T04:53:57;101117.84;;;9.20;88.91
72961;BME280;61141;46.204;19.774;2022-10-16T04:57:00;101116.94;;;9.16;88.97
72961;BME280;61141;46.204;19.774;2022-10-16T05:00:03;101119.88;;;8.99;89.35
72961;BME280;61141;46.204;19.774;2022-10-16T05:03:06;101121.94;;;9.02;89.48
72961;BME280;61141;46.204;19.774;2022-10-16T05:06:11;101121.72;;;8.95;89.62
72961;BME280;61141;46.204;19.774;2022-10-16T05:09:14;101118.03;;;8.91;89.81
72961;BME280;61141;46.204;19.774;2022-10-16T05:12:17;101125.53;;;8.81;90.32
72961;BME280;61141;46.204;19.774;2022-10-16T05:15:19;101117.56;;;8.76;90.25
72961;BME280;61141;46.204;19.774;2022-10-16T05:18:22;101134.78;;;8.89;90.18
72961;BME280;61141;46.204;19.774;2022-10-16T05:21:25;101139.69;;;8.96;90.02
72961;BME280;61141;46.204;19.774;2022-10-16T05:24:27;101134.22;;;8.96;89.86
72961;BME280;61141;46.204;19.774;2022-10-16T05:27:30;101131.03;;;8.94;89.77
72961;BME280;61141;46.204;19.774;2022-10-16T05:30:33;101136.72;;;9.01;89.73
72961;BME280;61141;46.204;19.774;2022-10-16T05:33:36;101139.13;;;9.02;89.60
72961;BME280;61141;46.204;19.774;2022-10-16T05:36:39;101148.25;;;9.18;89.57
72961;BME280;61141;46.204;19.774;2022-10-16T05:39:42;101147.00;;;9.28;89.23
72961;BME280;61141;46.204;19.774;2022-10-16T05:42:45;101134.03;;;9.25;89.13
72961;BME280;61141;46.204;19.774;2022-10-16T05:46:01;101163.09;;;9.41;88.73
72961;BME280;61141;46.204;19.774;2022-10-16T05:49:04;101153.62;;;9.51;88.61
72961;BME280;61141;46.204;19.774;2022-10-16T05:52:07;101157.50;;;9.62;88.32
72961;BME280;61141;46.204;19.774;2022-10-16T05:55:10;101158.06;;;9.68;87.93
72961;BME280;61141;46.204;19.774;2022-10-16T05:58:12;101172.44;;;9.77;87.64
72961;BME280;61141;46.204;19.774;2022-10-16T06:01:18;101167.06;;;9.80;87.38
72961;BME280;61141;46.204;19.774;2022-10-16T06:04:21;101184.97;;;9.90;87.40
72961;BME280;61141;46.204;19.774;2022-10-16T06:07:24;101185.28;;;10.00;87.24
72961;BME280;61141;46.204;19.774;2022-10-16T06:10:27;101190.63;;;10.09;86.86
72961;BME280;61141;46.204;19.774;2022-10-16T06:13:31;101186.41;;;10.12;86.45
72961;BME280;61141;46.204;19.774;2022-10-16T06:16:35;101185.16;;;10.21;86.20
72961;BME280;61141;46.204;19.774;2022-10-16T06:19:38;101198.63;;;10.26;85.87
72961;BME280;61141;46.204;19.774;2022-10-16T06:22:41;101209.19;;;10.40;85.83
72961;BME280;61141;46.204;19.774;2022-10-16T06:25:44;101203.69;;;10.52;85.37
72961;BME280;61141;46.204;19.774;2022-10-16T06:28:47;101205.72;;;10.55;84.81
72961;BME280;61141;46.204;19.774;2022-10-16T06:31:50;101207.97;;;10.65;84.65
72961;BME280;61141;46.204;19.774;2022-10-16T06:34:53;101209.63;;;10.82;84.26
72961;BME280;61141;46.204;19.774;2022-10-16T06:37:55;101213.44;;;10.93;84.01
72961;BME280;61141;46.204;19.774;2022-10-16T06:40:58;101208.59;;;11.02;83.39
72961;BME280;61141;46.204;19.774;2022-10-16T06:44:05;101218.09;;;11.20;82.85
72961;BME280;61141;46.204;19.774;2022-10-16T06:47:08;101227.41;;;11.31;82.42
72961;BME280;61141;46.204;19.774;2022-10-16T06:50:10;101235.19;;;11.45;82.04
72961;BME280;61141;46.204;19.774;2022-10-16T06:53:14;101237.94;;;11.60;81.69
72961;BME280;61141;46.204;19.774;2022-10-16T06:59:21;101251.16;;;11.86;79.79
72961;BME280;61141;46.204;19.774;2022-10-16T07:02:23;101258.84;;;11.96;79.50
72961;BME280;61141;46.204;19.774;2022-10-16T07:05:27;101256.09;;;12.12;78.93
72961;BME280;61141;46.204;19.774;2022-10-16T07:08:34;101264.16;;;12.20;78.29
72961;BME280;61141;46.204;19.774;2022-10-16T07:11:38;101266.44;;;12.34;77.82
72961;BME280;61141;46.204;19.774;2022-10-16T07:14:41;101261.78;;;12.38;77.20
72961;BME280;61141;46.204;19.774;2022-10-16T07:17:44;101268.41;;;12.53;77.02
72961;BME280;61141;46.204;19.774;2022-10-16T07:20:46;101268.25;;;12.65;76.43
72961;BME280;61141;46.204;19.774;2022-10-16T07:23:53;101276.75;;;12.75;76.55
72961;BME280;61141;46.204;19.774;2022-10-16T07:26:56;101259.97;;;12.80;75.32
72961;BME280;61141;46.204;19.774;2022-10-16T07:30:00;101271.47;;;13.05;74.82
72961;BME280;61141;46.204;19.774;2022-10-16T07:33:07;101279.22;;;13.19;74.29
72961;BME280;61141;46.204;19.774;2022-10-16T07:36:12;101281.88;;;13.34;73.49
72961;BME280;61141;46.204;19.774;2022-10-16T07:39:18;101280.59;;;13.51;72.73
72961;BME280;61141;46.204;19.774;2022-10-16T07:42:21;101283.63;;;13.65;72.17
72961;BME280;61141;46.204;19.774;2022-10-16T07:45:23;101279.88;;;13.77;71.93
72961;BME280;61141;46.204;19.774;2022-10-16T07:48:28;101295.44;;;13.88;70.81
72961;BME280;61141;46.204;19.774;2022-10-16T07:51:31;101298.69;;;13.94;70.92
72961;BME280;61141;46.204;19.774;2022-10-16T07:54:34;101278.22;;;13.95;70.44
72961;BME280;61141;46.204;19.774;2022-10-16T07:57:36;101302.50;;;14.12;70.25
72961;BME280;61141;46.204;19.774;2022-10-16T08:00:39;101300.34;;;14.25;69.78
72961;BME280;61141;46.204;19.774;2022-10-16T08:03:43;101282.62;;;14.26;69.68
72961;BME280;61141;46.204;19.774;2022-10-16T08:06:46;101278.09;;;14.37;68.32
72961;BME280;61141;46.204;19.774;2022-10-16T08:09:49;101293.72;;;14.55;68.77
72961;BME280;61141;46.204;19.774;2022-10-16T08:12:53;101286.41;;;14.66;68.51
72961;BME280;61141;46.204;19.774;2022-10-16T08:15:56;101299.56;;;14.77;68.43
72961;BME280;61141;46.204;19.774;2022-10-16T08:19:00;101280.59;;;14.75;67.06
72961;BME280;61141;46.204;19.774;2022-10-16T08:22:02;101300.63;;;14.98;67.43
72961;BME280;61141;46.204;19.774;2022-10-16T08:25:05;101301.91;;;15.08;66.84
72961;BME280;61141;46.204;19.774;2022-10-16T08:28:10;101311.09;;;15.19;66.40
72961;BME280;61141;46.204;19.774;2022-10-16T08:31:15;101314.00;;;15.29;65.62
72961;BME280;61141;46.204;19.774;2022-10-16T08:34:19;101295.44;;;15.30;64.53
72961;BME280;61141;46.204;19.774;2022-10-16T08:37:21;101318.44;;;15.41;64.05
72961;BME280;61141;46.204;19.774;2022-10-16T08:40:29;101322.13;;;15.49;63.66
72961;BME280;61141;46.204;19.774;2022-10-16T08:43:48;101310.34;;;15.55;63.33
72961;BME280;61141;46.204;19.774;2022-10-16T08:50:17;101330.69;;;15.77;63.20
72961;BME280;61141;46.204;19.774;2022-10-16T08:53:29;101326.75;;;15.78;63.47
72961;BME280;61141;46.204;19.774;2022-10-16T08:56:33;101314.56;;;15.82;63.95
72961;BME280;61141;46.204;19.774;2022-10-16T08:59:36;101320.59;;;15.95;63.20
72961;BME280;61141;46.204;19.774;2022-10-16T09:02:45;101326.28;;;16.13;63.09
72961;BME280;61141;46.204;19.774;2022-10-16T09:15:50;101328.87;;;16.46;61.49
72961;BME280;61141;46.204;19.774;2022-10-16T09:22:14;101331.09;;;16.77;60.19
72961;BME280;61141;46.204;19.774;2022-10-16T09:25:20;101337.47;;;16.81;60.02
72961;BME280;61141;46.204;19.774;2022-10-16T09:28:23;101341.41;;;16.84;60.26
72961;BME280;61141;46.204;19.774;2022-10-16T09:31:26;101344.63;;;16.96;59.32
72961;BME280;61141;46.204;19.774;2022-10-16T09:37:32;101342.69;;;17.00;58.31
72961;BME280;61141;46.204;19.774;2022-10-16T09:40:37;101341.16;;;17.07;58.81
72961;BME280;61141;46.204;19.774;2022-10-16T09:43:49;101345.09;;;17.13;58.55
72961;BME280;61141;46.204;19.774;2022-10-16T09:47:05;101350.66;;;17.13;58.06
72961;BME280;61141;46.204;19.774;2022-10-16T09:50:26;101349.50;;;17.21;58.01
72961;BME280;61141;46.204;19.774;2022-10-16T09:53:44;101349.13;;;17.26;58.21
72961;BME280;61141;46.204;19.774;2022-10-16T09:56:47;101343.62;;;17.36;57.90
72961;BME280;61141;46.204;19.774;2022-10-16T09:59:58;101333.34;;;17.33;57.82
72961;BME280;61141;46.204;19.774;2022-10-16T10:03:01;101345.25;;;17.44;57.88
72961;BME280;61141;46.204;19.774;2022-10-16T10:06:25;101354.75;;;17.47;57.54
72961;BME280;61141;46.204;19.774;2022-10-16T10:09:32;101343.66;;;17.47;57.29
72961;BME280;61141;46.204;19.774;2022-10-16T10:12:37;101360.38;;;17.65;56.53
72961;BME280;61141;46.204;19.774;2022-10-16T10:15:41;101353.25;;;17.74;56.33
72961;BME280;61141;46.204;19.774;2022-10-16T10:18:44;101350.88;;;17.76;56.00
72961;BME280;61141;46.204;19.774;2022-10-16T10:21:48;101345.72;;;17.82;56.40
72961;BME280;61141;46.204;19.774;2022-10-16T10:29:04;101342.56;;;17.87;56.23
72961;BME280;61141;46.204;19.774;2022-10-16T10:32:23;101350.12;;;17.97;55.81
72961;BME280;61141;46.204;19.774;2022-10-16T10:42:34;101348.53;;;18.20;55.02
72961;BME280;61141;46.204;19.774;2022-10-16T10:45:43;101339.03;;;18.22;54.29
72961;BME280;61141;46.204;19.774;2022-10-16T10:52:41;101347.75;;;18.24;54.37
72961;BME280;61141;46.204;19.774;2022-10-16T10:56:00;101338.25;;;18.25;54.16
72961;BME280;61141;46.204;19.774;2022-10-16T11:06:02;101332.66;;;18.46;53.19
72961;BME280;61141;46.204;19.774;2022-10-16T11:09:12;101331.87;;;18.45;53.57
72961;BME280;61141;46.204;19.774;2022-10-16T11:12:26;101333.88;;;18.48;53.94
72961;BME280;61141;46.204;19.774;2022-10-16T11:15:33;101318.81;;;18.53;53.37
72961;BME280;61141;46.204;19.774;2022-10-16T11:21:54;101332.25;;;18.61;52.26
72961;BME280;61141;46.204;19.774;2022-10-16T11:25:00;101327.94;;;18.64;52.90
72961;BME280;61141;46.204;19.774;2022-10-16T11:28:27;101316.00;;;18.67;52.95
72961;BME280;61141;46.204;19.774;2022-10-16T11:31:50;101319.19;;;18.69;53.66
72961;BME280;61141;46.204;19.774;2022-10-16T11:35:04;101319.13;;;18.87;53.44
72961;BME280;61141;46.204;19.774;2022-10-16T11:41:32;101313.59;;;18.83;52.54
72961;BME280;61141;46.204;19.774;2022-10-16T11:48:02;101317.16;;;18.80;52.98
72961;BME280;61141;46.204;19.774;2022-10-16T11:51:29;101307.63;;;18.88;53.46
72961;BME280;61141;46.204;19.774;2022-10-16T11:54:51;101306.44;;;18.82;52.22
72961;BME280;61141;46.204;19.774;2022-10-16T11:58:08;101301.28;;;18.84;52.65
72961;BME280;61141;46.204;19.774;2022-10-16T12:01:22;101301.28;;;18.88;52.98
72961;BME280;61141;46.204;19.774;2022-10-16T12:04:34;101303.19;;;18.98;52.91
72961;BME280;61141;46.204;19.774;2022-10-16T12:08:08;101302.03;;;18.99;52.54
72961;BME280;61141;46.204;19.774;2022-10-16T12:11:31;101311.16;;;18.99;51.83
72961;BME280;61141;46.204;19.774;2022-10-16T12:14:37;101307.56;;;18.95;52.60
72961;BME280;61141;46.204;19.774;2022-10-16T12:18:01;101290.91;;;18.95;51.97
72961;BME280;61141;46.204;19.774;2022-10-16T12:21:04;101288.56;;;18.90;52.06
72961;BME280;61141;46.204;19.774;2022-10-16T12:27:32;101292.09;;;19.01;51.55
72961;BME280;61141;46.204;19.774;2022-10-16T12:30:36;101283.81;;;18.94;51.72
72961;BME280;61141;46.204;19.774;2022-10-16T12:33:58;101276.59;;;19.00;51.54
72961;BME280;61141;46.204;19.774;2022-10-16T12:37:19;101289.72;;;18.96;51.65
72961;BME280;61141;46.204;19.774;2022-10-16T12:40:31;101284.97;;;18.97;51.60
72961;BME280;61141;46.204;19.774;2022-10-16T12:43:44;101286.16;;;18.99;51.76
72961;BME280;61141;46.204;19.774;2022-10-16T12:46:47;101289.31;;;19.01;51.44
72961;BME280;61141;46.204;19.774;2022-10-16T12:49:52;101287.34;;;19.02;50.74
72961;BME280;61141;46.204;19.774;2022-10-16T12:52:55;101290.50;;;19.00;51.28
72961;BME280;61141;46.204;19.774;2022-10-16T13:09:49;101290.09;;;19.02;51.11
72961;BME280;61141;46.204;19.774;2022-10-16T13:13:10;101297.25;;;18.99;51.42
72961;BME280;61141;46.204;19.774;2022-10-16T13:23:36;101294.06;;;19.01;51.02
72961;BME280;61141;46.204;19.774;2022-10-16T13:29:54;101297.69;;;18.94;51.91
72961;BME280;61141;46.204;19.774;2022-10-16T13:33:04;101301.63;;;18.97;51.94
72961;BME280;61141;46.204;19.774;2022-10-16T13:36:24;101294.50;;;18.96;51.73
72961;BME280;61141;46.204;19.774;2022-10-16T13:39:30;101297.31;;;18.85;52.09
72961;BME280;61141;46.204;19.774;2022-10-16T13:42:33;101279.88;;;18.81;51.81
72961;BME280;61141;46.204;19.774;2022-10-16T13:45:36;101293.34;;;18.86;52.50
72961;BME280;61141;46.204;19.774;2022-10-16T13:48:39;101292.50;;;18.96;51.89
72961;BME280;61141;46.204;19.774;2022-10-16T13:51:53;101291.75;;;18.85;51.17
72961;BME280;61141;46.204;19.774;2022-10-16T13:54:57;101289.78;;;18.86;51.47
72961;BME280;61141;46.204;19.774;2022-10-16T13:58:21;101296.94;;;18.83;51.79
72961;BME280;61141;46.204;19.774;2022-10-16T14:01:28;101297.72;;;18.80;51.25
72961;BME280;61141;46.204;19.774;2022-10-16T14:04:38;101295.75;;;18.73;51.76
72961;BME280;61141;46.204;19.774;2022-10-16T14:07:42;101300.97;;;18.61;52.48
72961;BME280;61141;46.204;19.774;2022-10-16T14:10:50;101296.22;;;18.51;52.44
72961;BME280;61141;46.204;19.774;2022-10-16T14:13:54;101304.91;;;18.63;52.05
72961;BME280;61141;46.204;19.774;2022-10-16T14:16:57;101308.09;;;18.55;52.54
72961;BME280;61141;46.204;19.774;2022-10-16T14:20:03;101305.72;;;18.46;52.73
72961;BME280;61141;46.204;19.774;2022-10-16T14:23:23;101307.72;;;18.49;52.99
72961;BME280;61141;46.204;19.774;2022-10-16T14:26:41;101303.34;;;18.38;53.12
72961;BME280;61141;46.204;19.774;2022-10-16T14:30:23;101313.25;;;18.32;53.29
72961;BME280;61141;46.204;19.774;2022-10-16T14:36:30;101319.22;;;18.12;53.89
72961;BME280;61141;46.204;19.774;2022-10-16T14:39:33;101300.63;;;17.92;54.20
72961;BME280;61141;46.204;19.774;2022-10-16T14:42:36;101314.09;;;18.00;53.66
72961;BME280;61141;46.204;19.774;2022-10-16T14:45:39;101322.78;;;18.02;53.80
72961;BME280;61141;46.204;19.774;2022-10-16T14:48:49;101331.87;;;17.92;54.10
72961;BME280;61141;46.204;19.774;2022-10-16T14:51:52;101308.91;;;17.78;54.20
72961;BME280;61141;46.204;19.774;2022-10-16T14:54:55;101321.16;;;17.73;54.80
72961;BME280;61141;46.204;19.774;2022-10-16T14:57:58;101316.81;;;17.69;55.25
72961;BME280;61141;46.204;19.774;2022-10-16T15:01:02;101320.78;;;17.64;55.30
72961;BME280;61141;46.204;19.774;2022-10-16T15:04:08;101331.84;;;17.71;55.00
72961;BME280;61141;46.204;19.774;2022-10-16T15:07:11;101333.03;;;17.56;55.79
72961;BME280;61141;46.204;19.774;2022-10-16T15:10:18;101330.97;;;17.39;56.56
72961;BME280;61141;46.204;19.774;2022-10-16T15:13:21;101334.06;;;17.23;57.58
72961;BME280;61141;46.204;19.774;2022-10-16T15:16:24;101341.94;;;17.11;57.89
72961;BME280;61141;46.204;19.774;2022-10-16T15:19:27;101337.09;;;16.93;58.48
72961;BME280;61141;46.204;19.774;2022-10-16T15:22:29;101344.19;;;16.87;59.70
72961;BME280;61141;46.204;19.774;2022-10-16T15:25:41;101353.22;;;16.77;59.95
72961;BME280;61141;46.204;19.774;2022-10-16T15:28:44;101338.94;;;16.68;60.15
72961;BME280;61141;46.204;19.774;2022-10-16T15:31:47;101353.88;;;16.53;60.87
72961;BME280;61141;46.204;19.774;2022-10-16T15:34:50;101345.47;;;16.42;61.41
72961;BME280;61141;46.204;19.774;2022-10-16T15:37:53;101338.63;;;16.26;62.77
72961;BME280;61141;46.204;19.774;2022-10-16T15:40:56;101327.44;;;16.08;63.19
72961;BME280;61141;46.204;19.774;2022-10-16T15:43:59;101343.56;;;16.03;63.66
72961;BME280;61141;46.204;19.774;2022-10-16T15:47:01;101346.59;;;15.87;64.43
72961;BME280;61141;46.204;19.774;2022-10-16T15:50:05;101356.75;;;15.76;65.24
72961;BME280;61141;46.204;19.774;2022-10-16T15:53:08;101364.50;;;15.63;65.71
72961;BME280;61141;46.204;19.774;2022-10-16T15:56:12;101348.06;;;15.44;66.23
72961;BME280;61141;46.204;19.774;2022-10-16T15:59:16;101362.63;;;15.38;66.76
72961;BME280;61141;46.204;19.774;2022-10-16T16:02:19;101364.78;;;15.21;67.41
72961;BME280;61141;46.204;19.774;2022-10-16T16:05:22;101366.16;;;15.08;68.10
72961;BME280;61141;46.204;19.774;2022-10-16T16:08:25;101364.34;;;14.90;69.06
72961;BME280;61141;46.204;19.774;2022-10-16T16:11:28;101364.09;;;14.72;70.00
72961;BME280;61141;46.204;19.774;2022-10-16T16:14:32;101380.94;;;14.63;70.99
72961;BME280;61141;46.204;19.774;2022-10-16T16:17:36;101384.25;;;14.50;71.83
72961;BME280;61141;46.204;19.774;2022-10-16T16:20:39;101394.69;;;14.37;72.55
72961;BME280;61141;46.204;19.774;2022-10-16T16:23:42;101408.62;;;14.25;73.30
72961;BME280;61141;46.204;19.774;2022-10-16T16:26:44;101409.66;;;14.17;73.43
72961;BME280;61141;46.204;19.774;2022-10-16T16:29:47;101413.44;;;14.09;74.00
72961;BME280;61141;46.204;19.774;2022-10-16T16:32:50;101416.81;;;13.99;74.53
72961;BME280;61141;46.204;19.774;2022-10-16T16:35:57;101414.31;;;13.90;75.00
72961;BME280;61141;46.204;19.774;2022-10-16T16:39:01;101416.13;;;13.83;75.43
72961;BME280;61141;46.204;19.774;2022-10-16T16:42:04;101423.00;;;13.73;76.09
72961;BME280;61141;46.204;19.774;2022-10-16T16:45:08;101423.63;;;13.63;76.62
72961;BME280;61141;46.204;19.774;2022-10-16T16:48:11;101432.47;;;13.53;76.89
72961;BME280;61141;46.204;19.774;2022-10-16T16:51:16;101438.19;;;13.44;77.14
72961;BME280;61141;46.204;19.774;2022-10-16T16:54:22;101437.59;;;13.35;77.77
72961;BME280;61141;46.204;19.774;2022-10-16T16:57:25;101437.16;;;13.33;77.81
72961;BME280;61141;46.204;19.774;2022-10-16T17:00:29;101421.66;;;13.25;78.09
72961;BME280;61141;46.204;19.774;2022-10-16T17:03:34;101439.66;;;13.23;78.71
72961;BME280;61141;46.204;19.774;2022-10-16T17:06:37;101445.44;;;13.18;78.77
72961;BME280;61141;46.204;19.774;2022-10-16T17:09:40;101451.88;;;13.06;78.87
72961;BME280;61141;46.204;19.774;2022-10-16T17:12:43;101448.22;;;13.02;79.11
72961;BME280;61141;46.204;19.774;2022-10-16T17:15:46;101444.59;;;12.98;79.34
72961;BME280;61141;46.204;19.774;2022-10-16T17:18:51;101460.66;;;12.96;80.08
72961;BME280;61141;46.204;19.774;2022-10-16T17:21:55;101449.03;;;12.87;80.40
72961;BME280;61141;46.204;19.774;2022-10-16T17:24:58;101446.75;;;12.73;80.74
72961;BME280;61141;46.204;19.774;2022-10-16T17:28:01;101454.37;;;12.80;80.65
72961;BME280;61141;46.204;19.774;2022-10-16T17:31:13;101440.19;;;12.62;80.91
72961;BME280;61141;46.204;19.774;2022-10-16T17:34:16;101466.91;;;12.62;81.81
72961;BME280;61141;46.204;19.774;2022-10-16T17:37:19;101482.06;;;12.56;81.55
72961;BME280;61141;46.204;19.774;2022-10-16T17:40:21;101481.34;;;12.43;81.99
72961;BME280;61141;46.204;19.774;2022-10-16T17:43:24;101476.75;;;12.31;82.45